Time;durP1;ratioP1;P1;durP2;ratioP2;P2;SDS_P1;SDS_P2;PMS_P1;PMS_P2;Temp;Humidity;BMP_temperature;BMP_pressure;BME280_temperature;BME280_humidity;BME280_pressure;Samples;Min_cycle;Max_cycle;Signal;HPM_P1;HPM_P2
2022/06/07 00:02:06;;;;;;;15.00;7.68;;;20.50;99.90;;;;;;4967689;28;20477;-69
2022/06/07 00:04:33;;;;;;;12.60;6.20;;;20.60;99.90;;;;;;4968546;28;20035;-68
2022/06/07 00:06:59;;;;;;;11.68;6.72;;;20.60;99.90;;;;;;4976137;28;20023;-68
2022/06/07 00:09:25;;;;;;;12.93;6.75;;;20.60;99.90;;;;;;4973609;28;20057;-69
2022/06/07 00:11:52;;;;;;;13.90;7.15;;;20.60;99.90;;;;;;4970109;28;20489;-66
2022/06/07 00:14:18;;;;;;;12.05;7.68;;;20.70;99.90;;;;;;4972224;28;20019;-66
2022/06/07 00:16:44;;;;;;;14.30;8.23;;;20.70;99.90;;;;;;4973022;28;20166;-67
2022/06/07 00:19:10;;;;;;;12.57;7.35;;;20.60;99.90;;;;;;4966345;28;20096;-66
2022/06/07 00:21:36;;;;;;;15.23;7.43;;;20.60;99.90;;;;;;4971917;28;20597;-69
2022/06/07 00:24:04;;;;;;;11.45;7.00;;;20.60;99.90;;;;;;4972270;28;20163;-67
2022/06/07 00:26:31;;;;;;;14.85;7.78;;;20.70;99.90;;;;;;4971798;28;20031;-67
2022/06/07 00:28:58;;;;;;;16.67;7.93;;;20.60;99.90;;;;;;4972343;28;20031;-67
2022/06/07 00:31:25;;;;;;;13.52;7.65;;;20.60;99.90;;;;;;4972422;28;20027;-66
2022/06/07 00:33:51;;;;;;;17.17;8.55;;;20.60;99.90;;;;;;4972300;28;20018;-67
2022/06/07 00:36:17;;;;;;;14.50;7.50;;;20.60;99.90;;;;;;4971967;28;20503;-64
2022/06/07 00:38:43;;;;;;;15.65;8.13;;;20.50;99.90;;;;;;4988764;28;20560;-69
2022/06/07 00:41:10;;;;;;;12.70;8.05;;;20.60;99.90;;;;;;4971695;28;20122;-69
2022/06/07 00:43:37;;;;;;;13.60;8.40;;;20.50;99.90;;;;;;4972772;28;20444;-67
2022/06/07 00:46:07;;;;;;;13.45;8.93;;;20.50;99.90;;;;;;4986477;28;20098;-67
2022/06/07 00:48:33;;;;;;;12.98;7.65;;;20.50;99.90;;;;;;4959931;28;20138;-67
2022/06/07 00:51:06;;;;;;;14.48;8.52;;;20.50;99.90;;;;;;4964294;28;20035;-66
2022/06/07 00:53:34;;;;;;;14.57;7.90;;;20.40;99.90;;;;;;4971982;28;20027;-67
2022/06/07 00:56:15;;;;;;;16.13;8.60;;;20.40;99.90;;;;;;4971765;28;20477;-68
2022/06/07 00:58:41;;;;;;;16.10;8.65;;;20.40;99.90;;;;;;4973078;28;20046;-69
2022/06/07 01:01:08;;;;;;;11.90;7.35;;;20.50;99.90;;;;;;4972825;28;20018;-68
2022/06/07 01:03:38;;;;;;;12.38;7.78;;;20.50;99.90;;;;;;4956155;28;20537;-68
2022/06/07 01:11:36;;;;;;;12.65;8.45;;;20.60;99.90;;;;;;4973705;28;20030;-69
2022/06/07 01:14:02;;;;;;;12.80;7.78;;;20.50;99.90;;;;;;4973145;28;20023;-67
2022/06/07 01:16:31;;;;;;;15.95;8.15;;;20.50;99.90;;;;;;4970590;28;20037;-68
2022/06/07 01:18:57;;;;;;;14.70;8.68;;;20.50;99.90;;;;;;4973294;28;20030;-69
2022/06/07 01:21:33;;;;;;;14.10;8.57;;;20.50;99.90;;;;;;4972023;28;20054;-68
2022/06/07 01:24:02;;;;;;;15.48;8.60;;;20.40;99.90;;;;;;4988049;28;20694;-66
2022/06/07 01:26:36;;;;;;;18.20;9.40;;;20.30;99.90;;;;;;4987991;28;20038;-69
2022/06/07 01:29:04;;;;;;;14.68;7.93;;;20.20;99.90;;;;;;4969633;28;20031;-69
2022/06/07 01:32:14;;;;;;;17.60;8.60;;;20.20;99.90;;;;;;4968703;28;20035;-69
2022/06/07 01:38:20;;;;;;;17.58;8.65;;;20.10;99.90;;;;;;4964050;28;20046;-65
2022/06/07 01:43:35;;;;;;;14.13;9.52;;;20.20;99.90;;;;;;4971441;28;20073;-68
2022/06/07 01:46:04;;;;;;;13.10;8.20;;;20.10;99.90;;;;;;4971597;28;20485;-69
2022/06/07 01:48:32;;;;;;;20.35;9.40;;;20.10;99.90;;;;;;4990642;28;20177;-70
2022/06/07 01:51:04;;;;;;;17.10;9.27;;;20.10;99.90;;;;;;4960271;28;20027;-70
2022/06/07 01:53:31;;;;;;;;;;;20.20;99.90;;;;;;4972098;28;20485;-69
2022/06/07 01:56:10;;;;;;;20.17;8.68;;;20.20;99.90;;;;;;4971028;28;19914;-69
2022/06/07 01:58:41;;;;;;;13.85;8.25;;;20.10;99.90;;;;;;4987351;28;20049;-68
2022/06/07 02:01:09;;;;;;;16.42;9.45;;;20.20;99.90;;;;;;4967304;28;20540;-64
2022/06/07 02:03:36;;;;;;;17.50;8.88;;;20.10;99.90;;;;;;4978819;28;20477;-70
2022/06/07 02:06:05;;;;;;;13.98;8.73;;;20.10;99.90;;;;;;4973500;28;20062;-68
2022/06/07 02:08:32;;;;;;;15.27;8.85;;;20.10;99.90;;;;;;4975012;28;20034;-69
2022/06/07 02:11:08;;;;;;;16.55;9.35;;;20.10;99.90;;;;;;4975352;28;20027;-65
2022/06/07 02:13:37;;;;;;;18.02;7.32;;;20.10;99.90;;;;;;4958898;28;20054;-69
2022/06/07 02:16:03;;;;;;;16.17;8.60;;;20.10;99.90;;;;;;4976123;28;20031;-70
2022/06/07 02:18:29;;;;;;;14.45;8.23;;;20.00;99.90;;;;;;4977861;28;20045;-70
2022/06/07 02:21:25;;;;;;;13.27;7.68;;;20.10;99.90;;;;;;4970504;28;20078;-67
2022/06/07 02:23:51;;;;;;;13.10;7.88;;;20.10;99.90;;;;;;4974951;28;20054;-65
2022/06/07 02:26:23;;;;;;;14.43;8.45;;;20.10;99.90;;;;;;4976286;28;20554;-67
2022/06/07 02:29:03;;;;;;;12.45;7.05;;;20.10;99.90;;;;;;4981482;28;20092;-69
2022/06/07 02:31:32;;;;;;;13.60;7.22;;;20.20;99.90;;;;;;4963399;28;20102;-70
2022/06/07 02:33:59;;;;;;;16.85;8.18;;;20.00;99.90;;;;;;4985632;28;20041;-67
2022/06/07 02:36:26;;;;;;;14.45;8.07;;;20.00;99.90;;;;;;4973719;28;20026;-66
2022/06/07 02:38:52;;;;;;;15.57;8.75;;;20.00;99.90;;;;;;4980650;28;20553;-69
2022/06/07 02:41:22;;;;;;;14.70;7.65;;;20.00;99.90;;;;;;4973922;28;20027;-70
2022/06/07 02:43:48;;;;;;;16.58;8.48;;;20.00;99.90;;;;;;4971745;28;20139;-68
2022/06/07 02:46:14;;;;;;;15.57;8.52;;;20.00;99.90;;;;;;4982155;28;20026;-69
2022/06/07 02:48:41;;;;;;;14.57;8.50;;;19.90;99.90;;;;;;4971711;28;20031;-69
2022/06/07 02:51:07;;;;;;;14.65;9.25;;;19.90;99.90;;;;;;4975364;28;20026;-69
2022/06/07 02:53:33;;;;;;;15.88;8.43;;;19.80;99.90;;;;;;4975032;28;20031;-70
2022/06/07 02:56:01;;;;;;;14.98;8.52;;;19.80;99.90;;;;;;4986170;28;20027;-68
2022/06/07 02:58:28;;;;;;;15.60;9.07;;;19.80;99.90;;;;;;4973872;28;20050;-67
2022/06/07 03:00:58;;;;;;;14.25;8.48;;;19.80;99.90;;;;;;4974290;28;20382;-69
2022/06/07 03:03:28;;;;;;;20.42;9.10;;;19.80;99.90;;;;;;4961794;28;20514;-69
2022/06/07 03:05:56;;;;;;;23.10;9.93;;;19.80;99.90;;;;;;4966450;28;20132;-69
2022/06/07 03:08:23;;;;;;;16.38;8.75;;;19.70;99.90;;;;;;4972797;28;20500;-68
2022/06/07 03:10:54;;;;;;;15.57;8.98;;;19.50;99.90;;;;;;4972214;28;20067;-69
2022/06/07 03:13:21;;;;;;;16.67;9.57;;;19.50;99.90;;;;;;4973366;28;20042;-70
2022/06/07 03:15:48;;;;;;;13.73;9.27;;;19.40;99.90;;;;;;4973851;28;20037;-69
2022/06/07 03:18:15;;;;;;;19.90;9.43;;;19.30;99.90;;;;;;4968940;28;20408;-70
2022/06/07 03:20:46;;;;;;;18.55;9.50;;;19.30;99.90;;;;;;4971597;28;20114;-70
2022/06/07 03:23:13;;;;;;;16.67;9.38;;;19.40;99.90;;;;;;4989437;28;20073;-66
2022/06/07 03:25:41;;;;;;;16.45;8.98;;;19.50;99.90;;;;;;4967135;28;20101;-69
2022/06/07 03:28:08;;;;;;;14.90;8.98;;;19.50;99.90;;;;;;4989544;28;20475;-67
2022/06/07 03:30:35;;;;;;;13.88;7.95;;;19.60;99.90;;;;;;4971488;28;20037;-69
2022/06/07 03:33:02;;;;;;;21.25;9.07;;;19.60;99.90;;;;;;4969670;28;20023;-68
2022/06/07 03:35:30;;;;;;;15.30;9.50;;;19.60;99.90;;;;;;4973780;28;20781;-69
2022/06/07 03:37:59;;;;;;;17.73;9.02;;;19.70;99.90;;;;;;4969587;28;20485;-69
2022/06/07 03:40:44;;;;;;;13.43;8.65;;;19.80;99.90;;;;;;4989227;28;20034;-68
2022/06/07 03:43:23;;;;;;;19.38;8.95;;;20.10;99.90;;;;;;4953682;28;20532;-69
2022/06/07 03:45:50;;;;;;;18.48;9.35;;;20.40;99.90;;;;;;4970487;28;20070;-70
2022/06/07 03:48:16;;;;;;;14.88;9.20;;;20.40;99.90;;;;;;4973298;28;20037;-70
2022/06/07 03:50:42;;;;;;;16.70;8.60;;;20.40;99.90;;;;;;4973282;28;20118;-69
2022/06/07 03:53:09;;;;;;;16.25;9.50;;;20.50;99.90;;;;;;4971886;28;20030;-67
2022/06/07 03:55:44;;;;;;;17.67;8.55;;;20.50;99.90;;;;;;4959366;28;20086;-67
2022/06/07 03:58:15;;;;;;;18.42;8.73;;;20.60;99.90;;;;;;4974670;28;20485;-67
2022/06/07 04:00:40;;;;;;;13.20;8.30;;;20.70;99.90;;;;;;4978712;28;20485;-69
2022/06/07 04:03:08;;;;;;;13.52;8.60;;;20.70;99.90;;;;;;4969554;28;20023;-68
2022/06/07 04:05:39;;;;;;;18.02;8.55;;;20.80;99.90;;;;;;4987285;28;20034;-69
2022/06/07 04:08:10;;;;;;;14.23;8.25;;;20.80;99.90;;;;;;4969294;28;20445;-69
2022/06/07 04:11:00;;;;;;;20.27;8.30;;;20.80;99.90;;;;;;4986978;28;20077;-69
2022/06/07 04:13:48;;;;;;;15.63;8.88;;;20.80;99.90;;;;;;4972047;28;20069;-69
2022/06/07 04:16:17;;;;;;;19.63;8.75;;;20.90;99.90;;;;;;4973556;28;20109;-64
2022/06/07 04:18:49;;;;;;;15.57;8.35;;;21.10;99.90;;;;;;4954955;28;20039;-67
2022/06/07 04:21:19;;;;;;;12.23;7.30;;;21.40;99.90;;;;;;4971563;28;20023;-70
2022/06/07 04:23:45;;;;;;;14.63;8.57;;;21.50;99.90;;;;;;4967106;28;20477;-69
2022/06/07 04:26:15;;;;;;;17.60;7.85;;;21.50;99.90;;;;;;4956722;28;20029;-69
2022/06/07 04:28:44;;;;;;;12.80;7.95;;;21.60;99.90;;;;;;4965852;28;20529;-70
2022/06/07 04:31:16;;;;;;;14.38;8.15;;;21.80;99.90;;;;;;4955810;28;20086;-69
2022/06/07 04:33:44;;;;;;;13.48;7.65;;;21.70;99.90;;;;;;4968419;28;20027;-69
2022/06/07 04:36:18;;;;;;;17.90;7.70;;;21.60;99.90;;;;;;4955855;28;20027;-69
2022/06/07 04:38:47;;;;;;;13.98;8.23;;;21.70;99.90;;;;;;4986076;28;20045;-69
2022/06/07 04:41:15;;;;;;;14.43;8.55;;;21.70;99.90;;;;;;4969863;28;20453;-69
2022/06/07 04:43:47;;;;;;;14.00;8.35;;;22.30;99.90;;;;;;4984728;28;20042;-69
2022/06/07 04:46:16;;;;;;;17.60;8.20;;;22.50;99.90;;;;;;4983646;28;20457;-69
2022/06/07 04:48:44;;;;;;;12.45;8.20;;;23.00;99.90;;;;;;4973702;28;20034;-69
2022/06/07 04:51:20;;;;;;;16.08;8.32;;;23.50;99.90;;;;;;4964169;28;20110;-70
2022/06/07 04:53:57;;;;;;;19.50;8.68;;;23.60;99.90;;;;;;4971792;28;20109;-69
2022/06/07 04:56:28;;;;;;;14.80;8.35;;;24.10;99.90;;;;;;4955760;28;20066;-69
2022/06/07 04:58:56;;;;;;;17.08;8.65;;;24.00;99.90;;;;;;4954840;28;20137;-70
2022/06/07 05:01:34;;;;;;;27.73;8.90;;;24.00;99.90;;;;;;4955770;28;20035;-67
2022/06/07 05:04:06;;;;;;;16.40;7.95;;;24.30;99.90;;;;;;4971435;28;20035;-70
2022/06/07 05:06:35;;;;;;;15.98;7.80;;;24.50;99.90;;;;;;4971469;28;20121;-69
2022/06/07 05:09:20;;;;;;;15.77;7.93;;;24.70;99.90;;;;;;4987726;28;20033;-69
2022/06/07 05:11:49;;;;;;;14.88;7.90;;;24.90;99.90;;;;;;4986261;28;20516;-69
2022/06/07 05:14:17;;;;;;;10.65;6.90;;;25.10;99.90;;;;;;4971851;28;20038;-69
2022/06/07 05:16:48;;;;;;;16.95;7.55;;;25.30;99.90;;;;;;4986970;28;20256;-69
2022/06/07 05:19:20;;;;;;;14.75;7.20;;;25.60;99.90;;;;;;4973198;28;20030;-70
2022/06/07 05:21:48;;;;;;;12.80;7.30;;;25.40;99.90;;;;;;4987437;28;20061;-70
2022/06/07 05:24:16;;;;;;;15.98;7.70;;;25.40;99.90;;;;;;4954532;28;20034;-70
2022/06/07 05:26:50;;;;;;;13.68;7.15;;;25.50;99.90;;;;;;4959461;28;20023;-69
2022/06/07 05:29:45;;;;;;;15.02;7.18;;;25.30;99.90;;;;;;4987864;28;20105;-70
2022/06/07 05:32:14;;;;;;;13.60;7.00;;;25.60;99.60;;;;;;4972014;28;20027;-69
2022/06/07 05:34:45;;;;;;;11.00;6.82;;;25.80;99.90;;;;;;4987362;28;20035;-69
2022/06/07 05:37:17;;;;;;;10.70;6.85;;;25.90;99.70;;;;;;4980711;28;20050;-69
2022/06/07 05:39:43;;;;;;;;;;;26.00;99.60;;;;;;4987156;28;20031;-69
2022/06/07 05:42:13;;;;;;;11.45;6.38;;;25.90;99.50;;;;;;4975386;28;19960;-70
2022/06/07 05:44:39;;;;;;;11.13;5.78;;;25.80;99.90;;;;;;4972010;28;20062;-70
2022/06/07 05:47:06;;;;;;;12.48;7.00;;;26.00;99.90;;;;;;4988645;28;20041;-70
2022/06/07 05:49:42;;;;;;;12.60;6.82;;;25.90;99.90;;;;;;4975630;28;20019;-70
2022/06/07 05:52:12;;;;;;;13.52;6.80;;;26.10;99.90;;;;;;4991492;28;20054;-70
2022/06/07 05:54:39;;;;;;;12.45;7.50;;;26.00;99.40;;;;;;4975183;28;20035;-69
2022/06/07 05:57:07;;;;;;;12.65;6.70;;;26.20;99.90;;;;;;4974740;28;20030;-68
2022/06/07 05:59:34;;;;;;;13.25;6.88;;;26.40;99.90;;;;;;4975335;28;20026;-69
2022/06/07 06:02:03;;;;;;;10.15;6.65;;;26.40;98.90;;;;;;4975115;28;20015;-69
2022/06/07 06:04:34;;;;;;;12.35;7.25;;;26.70;99.90;;;;;;4976082;28;20428;-68
2022/06/07 06:07:00;;;;;;;14.38;7.38;;;26.90;98.80;;;;;;4988252;28;20030;-69
2022/06/07 06:12:17;;;;;;;14.43;7.00;;;27.00;97.40;;;;;;4980206;28;20077;-69
2022/06/07 06:15:00;;;;;;;18.30;7.18;;;27.30;94.60;;;;;;4991959;28;20548;-69
2022/06/07 06:17:30;;;;;;;11.20;6.68;;;27.20;96.00;;;;;;4975210;28;20046;-69
2022/06/07 06:20:04;;;;;;;12.35;7.25;;;27.40;97.10;;;;;;4968310;28;20101;-70
2022/06/07 06:22:34;;;;;;;10.75;7.07;;;27.50;96.20;;;;;;4960610;28;20031;-69
2022/06/07 06:25:06;;;;;;;12.32;6.75;;;27.40;96.70;;;;;;4956809;28;20027;-70
2022/06/07 06:27:33;;;;;;;10.98;6.68;;;27.20;96.30;;;;;;4975478;28;20027;-70
2022/06/07 06:30:02;;;;;;;12.18;6.80;;;27.10;97.50;;;;;;4971042;28;20484;-70
2022/06/07 06:32:29;;;;;;;15.85;6.63;;;27.30;96.20;;;;;;4974932;28;20037;-69
2022/06/07 06:34:56;;;;;;;12.60;6.88;;;27.40;97.80;;;;;;4980969;28;20030;-69
2022/06/07 06:37:27;;;;;;;16.33;6.97;;;27.60;99.90;;;;;;4976303;28;20050;-70
2022/06/07 06:39:54;;;;;;;13.95;6.72;;;27.90;97.60;;;;;;4974096;28;20038;-69
2022/06/07 06:42:20;;;;;;;11.00;7.15;;;28.10;95.10;;;;;;4974630;28;20125;-69
2022/06/07 06:45:01;;;;;;;12.85;6.60;;;28.00;93.10;;;;;;4973716;28;20034;-69
2022/06/07 06:47:28;;;;;;;12.10;6.43;;;27.90;95.40;;;;;;4968021;28;20032;-70
2022/06/07 06:49:54;;;;;;;14.48;6.00;;;28.10;94.50;;;;;;4969327;28;20022;-70
2022/06/07 06:52:22;;;;;;;11.23;6.85;;;28.30;95.30;;;;;;4979010;28;20026;-69
2022/06/07 06:54:48;;;;;;;8.40;5.88;;;28.40;93.90;;;;;;4975424;28;20114;-70
2022/06/07 06:57:21;;;;;;;10.75;6.22;;;28.50;93.30;;;;;;4957593;28;20851;-70
2022/06/07 06:59:47;;;;;;;9.13;5.93;;;28.60;92.50;;;;;;4974993;28;20054;-70
2022/06/07 07:02:14;;;;;;;8.85;5.60;;;28.80;93.30;;;;;;4974266;28;20027;-69
2022/06/07 07:04:48;;;;;;;17.38;6.18;;;28.60;90.90;;;;;;4986988;28;20034;-69
2022/06/07 07:07:14;;;;;;;10.05;6.00;;;28.70;90.60;;;;;;4970538;28;20045;-69
2022/06/07 07:09:40;;;;;;;8.73;5.60;;;28.90;92.50;;;;;;4969697;28;20035;-68
2022/06/07 07:12:10;;;;;;;9.57;6.03;;;;;;;;;;4974303;28;20078;-69
2022/06/07 07:14:39;;;;;;;9.05;6.28;;;29.00;89.40;;;;;;4949519;28;20096;-69
2022/06/07 07:17:10;;;;;;;8.18;5.38;;;28.80;90.90;;;;;;4969256;28;20043;-70
2022/06/07 07:19:36;;;;;;;8.50;5.55;;;29.10;87.10;;;;;;4962701;28;20035;-70
2022/06/07 07:22:08;;;;;;;;;;;28.10;85.00;;;;;;4973485;28;20030;-68
2022/06/07 07:24:35;;;;;;;13.73;6.03;;;28.00;88.90;;;;;;4972708;28;20341;-69
2022/06/07 07:27:04;;;;;;;10.88;5.55;;;28.50;88.50;;;;;;4955581;28;20058;-69
2022/06/07 07:29:30;;;;;;;10.00;5.40;;;28.20;87.80;;;;;;4972718;28;20228;-69
2022/06/07 07:32:01;;;;;;;7.80;5.18;;;28.20;88.50;;;;;;4957796;28;20035;-70
2022/06/07 07:34:34;;;;;;;7.25;4.70;;;28.60;88.40;;;;;;4981735;28;20035;-70
2022/06/07 07:37:00;;;;;;;5.97;4.40;;;28.80;89.60;;;;;;4972783;28;20042;-70
2022/06/07 07:39:31;;;;;;;6.53;4.60;;;29.20;88.20;;;;;;4972991;28;20405;-69
2022/06/07 07:41:57;;;;;;;8.10;4.50;;;29.50;86.70;;;;;;4989030;28;20031;-69
2022/06/07 07:44:27;;;;;;;8.02;4.80;;;;;;;;;;4971027;28;20138;-69
2022/06/07 07:46:58;;;;;;;6.77;4.40;;;29.40;98.40;;;;;;4959168;28;20034;-69
2022/06/07 07:49:28;;;;;;;7.10;4.82;;;29.60;94.60;;;;;;4972360;28;20039;-68
2022/06/07 07:51:55;;;;;;;6.97;4.90;;;;;;;;;;4974901;28;20030;-70
2022/06/07 07:54:26;;;;;;;10.02;4.80;;;;;;;;;;4969556;28;20035;-70
2022/06/07 07:56:57;;;;;;;;;;;30.00;91.80;;;;;;4988149;28;20039;-70
2022/06/07 07:59:24;;;;;;;7.03;4.57;;;29.70;95.10;;;;;;4984132;28;19922;-68
2022/06/07 08:01:53;;;;;;;6.15;4.25;;;29.60;96.60;;;;;;4971710;28;20025;-70
2022/06/07 08:04:19;;;;;;;6.65;4.32;;;29.50;95.20;;;;;;4968394;28;20110;-69
2022/06/07 08:06:49;;;;;;;5.93;4.00;;;;;;;;;;4975755;28;20019;-68
2022/06/07 08:09:15;;;;;;;11.77;4.25;;;29.90;98.80;;;;;;4971473;28;20031;-69
2022/06/07 08:11:42;;;;;;;9.80;4.15;;;;;;;;;;4974063;28;20425;-72
2022/06/07 08:14:10;;;;;;;7.15;3.83;;;;;;;;;;4966116;28;20110;-71
2022/06/07 08:16:36;;;;;;;5.88;3.95;;;30.20;78.60;;;;;;4972253;28;20113;-71
2022/06/07 08:19:03;;;;;;;7.95;4.68;;;30.10;78.60;;;;;;4975294;28;20027;-72
2022/06/07 08:21:30;;;;;;;8.38;4.05;;;30.00;78.40;;;;;;4966796;28;20102;-70
2022/06/07 08:23:57;;;;;;;9.18;4.32;;;29.60;75.40;;;;;;4971893;28;20026;-68
2022/06/07 08:26:26;;;;;;;5.43;3.60;;;29.80;77.30;;;;;;4972030;28;20086;-69
2022/06/07 08:28:52;;;;;;;8.10;4.20;;;29.40;74.00;;;;;;4967439;28;20062;-69
2022/06/07 08:31:21;;;;;;;6.47;4.18;;;29.50;75.50;;;;;;4968392;28;20025;-69
2022/06/07 08:39:17;;;;;;;18.30;3.92;;;30.10;77.20;;;;;;4965144;28;20031;-70
2022/06/07 08:41:52;;;;;;;7.03;3.85;;;30.30;78.40;;;;;;4972319;28;20030;-70
2022/06/07 08:44:44;;;;;;;6.65;4.43;;;30.50;76.90;;;;;;4972414;28;20054;-70
2022/06/07 08:47:24;;;;;;;6.93;4.18;;;30.30;77.60;;;;;;4969296;28;20043;-69
2022/06/07 08:49:54;;;;;;;7.18;3.75;;;30.20;73.50;;;;;;4972038;28;20030;-70
2022/06/07 08:52:24;;;;;;;9.35;4.03;;;30.40;75.70;;;;;;4974587;28;20088;-71
2022/06/07 08:54:50;;;;;;;9.30;4.55;;;30.00;73.60;;;;;;4978344;28;20140;-69
2022/06/07 08:57:26;;;;;;;5.55;4.15;;;30.20;76.40;;;;;;4972642;28;20030;-70
2022/06/07 08:59:59;;;;;;;7.80;4.18;;;29.90;75.50;;;;;;4972321;28;20030;-70
2022/06/07 09:02:46;;;;;;;7.32;4.10;;;30.20;72.90;;;;;;4973235;28;20031;-72
2022/06/07 09:05:16;;;;;;;6.00;3.90;;;30.20;74.40;;;;;;4966797;28;20472;-71
2022/06/07 09:07:43;;;;;;;4.93;3.90;;;30.30;77.30;;;;;;4965634;28;20037;-71
2022/06/07 09:13:22;;;;;;;6.68;4.18;;;30.50;73.40;;;;;;4958528;28;20069;-71
2022/06/07 09:15:52;;;;;;;7.63;5.05;;;30.90;74.40;;;;;;4971360;28;20058;-71
2022/06/07 09:18:19;;;;;;;6.05;4.25;;;30.80;72.80;;;;;;4970593;28;20464;-71
2022/06/07 09:20:57;;;;;;;9.93;3.90;;;30.10;71.40;;;;;;4974079;28;20036;-71
2022/06/07 09:23:47;;;;;;;6.05;4.30;;;28.50;74.70;;;;;;4966013;28;20382;-71
2022/06/07 09:26:24;;;;;;;10.80;4.95;;;28.20;75.80;;;;;;4974214;28;20111;-72
2022/06/07 09:29:17;;;;;;;8.30;4.63;;;28.90;76.10;;;;;;4973550;28;20027;-71
2022/06/07 09:31:45;;;;;;;5.93;4.40;;;29.10;76.70;;;;;;4968697;28;20062;-72
2022/06/07 09:34:19;;;;;;;9.30;4.68;;;29.40;75.00;;;;;;4972958;28;20109;-70
2022/06/07 09:36:49;;;;;;;8.13;3.63;;;29.70;75.70;;;;;;4972898;28;20547;-63
2022/06/07 09:39:25;;;;;;;7.88;4.63;;;29.90;74.20;;;;;;4960297;28;20528;-64
2022/06/07 09:42:01;;;;;;;6.45;4.18;;;29.10;73.80;;;;;;4962753;28;20050;-70
2022/06/07 09:44:42;;;;;;;5.25;4.10;;;28.80;73.30;;;;;;4969473;28;20082;-68
2022/06/07 09:47:13;;;;;;;5.87;3.97;;;28.50;76.40;;;;;;4966338;28;20023;-67
2022/06/07 09:49:48;;;;;;;8.98;4.55;;;28.70;76.70;;;;;;4971882;28;20102;-64
2022/06/07 09:52:26;;;;;;;7.80;4.85;;;28.70;77.40;;;;;;4970616;28;20039;-71
2022/06/07 09:54:59;;;;;;;7.35;4.45;;;28.70;77.40;;;;;;4972323;28;20078;-70
2022/06/07 09:57:42;;;;;;;11.73;4.78;;;28.60;75.30;;;;;;4971337;28;20401;-71
2022/06/07 10:00:20;;;;;;;7.13;4.28;;;28.70;76.10;;;;;;4971847;28;20018;-71
2022/06/07 10:03:02;;;;;;;9.18;4.80;;;29.00;77.70;;;;;;4975178;28;20504;-71
2022/06/07 10:05:31;;;;;;;;;;;29.50;75.40;;;;;;4974328;28;20350;-70
2022/06/07 10:08:22;;;;;;;5.63;4.03;;;29.10;75.60;;;;;;4971214;28;19906;-68
2022/06/07 10:10:59;;;;;;;7.37;5.00;;;29.40;76.20;;;;;;4962334;28;20441;-68
2022/06/07 10:13:46;;;;;;;8.98;4.55;;;29.80;76.80;;;;;;4969124;28;20265;-69
2022/06/07 10:16:14;;;;;;;7.68;4.82;;;29.40;74.60;;;;;;4969687;28;20031;-69
2022/06/07 10:18:45;;;;;;;9.63;4.60;;;29.50;74.90;;;;;;4974394;28;20038;-70
2022/06/07 10:21:30;;;;;;;6.15;4.70;;;29.90;75.80;;;;;;4970712;28;20113;-68
2022/06/07 10:24:17;;;;;;;9.43;4.90;;;29.10;73.40;;;;;;4985893;28;20056;-71
2022/06/07 10:27:30;;;;;;;6.85;4.95;;;29.20;73.80;;;;;;4964479;28;20113;-71
2022/06/07 10:30:19;;;;;;;7.75;5.07;;;29.80;75.40;;;;;;4902024;29;20052;-71
2022/06/07 10:32:54;;;;;;;8.90;4.97;;;30.20;75.10;;;;;;4897278;29;20037;-67
2022/06/07 10:35:41;;;;;;;7.47;5.20;;;30.30;75.10;;;;;;4895817;29;20160;-71
2022/06/07 10:38:13;;;;;;;7.35;5.15;;;30.90;72.70;;;;;;4890593;29;20116;-70
2022/06/07 10:41:03;;;;;;;13.35;5.47;;;30.50;72.20;;;;;;4898268;29;20033;-71
2022/06/07 10:44:05;;;;;;;9.27;5.90;;;30.10;73.40;;;;;;4897931;29;20033;-71
2022/06/07 10:46:35;;;;;;;9.98;5.95;;;30.20;75.40;;;;;;4891804;29;20435;-71
2022/06/07 10:49:19;;;;;;;7.88;5.35;;;29.80;74.10;;;;;;4892872;29;20037;-64
2022/06/07 10:54:54;;;;;;;6.88;5.22;;;30.00;75.40;;;;;;4897262;29;20040;-70
2022/06/07 10:57:25;;;;;;;5.75;4.38;;;30.00;74.30;;;;;;4896705;29;20406;-70
2022/06/07 10:59:52;;;;;;;9.63;5.60;;;29.80;73.00;;;;;;4896236;29;20037;-71
2022/06/07 11:02:30;;;;;;;8.50;5.13;;;30.30;73.10;;;;;;4896208;29;20119;-68
2022/06/07 11:11:09;;;;;;;11.70;4.85;;;30.30;72.00;;;;;;4961837;28;20389;-70
2022/06/07 11:13:46;;;;;;;11.13;4.65;;;30.10;72.10;;;;;;4962758;28;20035;-68
2022/06/07 11:16:29;;;;;;;14.05;5.38;;;30.10;72.30;;;;;;4966211;28;20397;-65
2022/06/07 11:18:59;;;;;;;9.93;5.10;;;30.30;73.80;;;;;;4974845;28;20039;-71
2022/06/07 11:21:36;;;;;;;10.77;5.13;;;29.20;72.00;;;;;;4967432;28;20019;-71
2022/06/07 11:24:22;;;;;;;10.15;5.75;;;29.60;72.00;;;;;;4966937;28;20027;-63
2022/06/07 11:27:13;;;;;;;10.82;5.15;;;28.80;72.80;;;;;;4971175;28;20122;-71
2022/06/07 11:29:39;;;;;;;14.68;5.15;;;29.30;72.60;;;;;;4983190;28;20027;-72
2022/06/07 11:32:41;;;;;;;9.57;5.13;;;29.20;74.20;;;;;;4977826;28;20437;-71
2022/06/07 11:35:44;;;;;;;9.85;5.65;;;29.30;73.10;;;;;;4948539;28;20093;-70
2022/06/07 11:38:19;;;;;;;9.52;4.95;;;29.50;73.30;;;;;;4963822;28;20042;-69
2022/06/07 11:40:46;;;;;;;7.10;4.82;;;30.10;74.80;;;;;;4974360;28;20030;-70
2022/06/07 11:43:51;;;;;;;11.23;5.90;;;29.70;72.60;;;;;;4967787;28;20043;-67
2022/06/07 11:46:35;;;;;;;11.75;5.93;;;30.30;74.00;;;;;;4973249;28;20381;-69
2022/06/07 11:51:55;;;;;;;10.20;5.22;;;30.20;72.10;;;;;;4967794;28;20126;-70
2022/06/07 11:54:29;;;;;;;8.32;5.65;;;29.70;73.60;;;;;;4976947;28;20425;-67
2022/06/07 11:57:02;;;;;;;7.13;5.13;;;29.80;74.10;;;;;;4957015;28;20128;-66
2022/06/07 11:59:43;;;;;;;8.95;5.70;;;29.80;73.70;;;;;;4969742;28;20039;-63
2022/06/07 12:02:12;;;;;;;8.38;5.50;;;29.80;74.20;;;;;;4976380;28;20172;-67
2022/06/07 12:04:41;;;;;;;12.07;6.25;;;29.50;74.40;;;;;;4973450;28;20031;-65
2022/06/07 12:07:15;;;;;;;25.15;5.65;;;29.40;74.00;;;;;;4971205;28;20054;-65
2022/06/07 12:09:51;;;;;;;10.73;6.15;;;29.30;74.90;;;;;;4969875;28;20120;-66
2022/06/07 12:12:37;;;;;;;10.95;6.18;;;29.50;75.00;;;;;;4973447;28;20061;-69
2022/06/07 12:15:14;;;;;;;9.55;5.93;;;29.80;76.80;;;;;;4972757;28;20027;-63
2022/06/07 12:18:06;;;;;;;10.45;5.70;;;29.80;74.00;;;;;;4971477;28;20433;-71
2022/06/07 12:20:35;;;;;;;13.48;6.40;;;29.90;73.70;;;;;;4964334;28;20027;-68
2022/06/07 12:23:25;;;;;;;7.85;4.78;;;29.40;73.50;;;;;;4958198;28;20090;-71
2022/06/07 12:26:20;;;;;;;8.57;5.50;;;29.00;73.20;;;;;;4972719;28;20422;-70
2022/06/07 12:28:57;;;;;;;7.68;5.22;;;29.40;75.20;;;;;;4963928;28;20061;-69
2022/06/07 12:31:25;;;;;;;9.90;4.78;;;29.80;75.00;;;;;;4964285;28;20092;-71
2022/06/07 12:34:01;;;;;;;9.25;5.57;;;29.80;74.60;;;;;;4973603;28;20027;-71
2022/06/07 12:36:33;;;;;;;9.57;5.28;;;30.00;75.30;;;;;;4973041;28;20034;-71
2022/06/07 12:39:10;;;;;;;9.68;5.82;;;29.70;72.50;;;;;;4973142;28;20053;-70
2022/06/07 12:41:52;;;;;;;9.90;5.53;;;30.00;72.50;;;;;;4970493;28;20442;-68
2022/06/07 12:44:32;;;;;;;8.73;5.43;;;30.10;73.10;;;;;;4962736;28;20551;-70
2022/06/07 12:47:01;;;;;;;12.05;6.75;;;30.20;72.30;;;;;;4973784;28;20037;-70
2022/06/07 12:49:39;;;;;;;8.93;5.50;;;29.90;73.10;;;;;;4981442;28;20025;-65
2022/06/07 12:52:07;;;;;;;10.48;6.43;;;29.60;72.80;;;;;;4970562;28;20030;-71
2022/06/07 12:54:34;;;;;;;10.55;5.90;;;29.90;72.80;;;;;;4971353;28;20042;-66
2022/06/07 12:57:06;;;;;;;16.75;6.22;;;29.90;72.20;;;;;;4972309;28;20114;-70
2022/06/07 12:59:41;;;;;;;7.70;4.97;;;29.70;72.90;;;;;;4966606;28;20027;-69
2022/06/07 13:02:39;;;;;;;18.30;4.93;;;29.80;72.20;;;;;;4973826;28;20114;-67
2022/06/07 13:05:10;;;;;;;7.70;5.00;;;29.80;71.70;;;;;;4965985;28;20039;-70
2022/06/07 13:07:47;;;;;;;8.45;4.68;;;29.80;71.30;;;;;;4971495;28;20038;-66
2022/06/07 13:10:39;;;;;;;8.60;5.40;;;29.20;72.30;;;;;;4973191;28;20474;-71
2022/06/07 13:13:16;;;;;;;7.85;4.65;;;29.40;72.50;;;;;;4970805;28;20505;-71
2022/06/07 13:15:56;;;;;;;6.60;4.80;;;29.60;72.60;;;;;;4967023;28;20030;-71
2022/06/07 13:18:26;;;;;;;9.25;5.30;;;29.50;72.00;;;;;;4976540;28;20038;-71
2022/06/07 13:21:10;;;;;;;8.13;5.30;;;29.70;73.10;;;;;;4990412;28;20050;-70
2022/06/07 13:23:40;;;;;;;9.98;4.70;;;29.70;73.20;;;;;;4972456;28;20544;-71
2022/06/07 13:26:54;;;;;;;6.50;4.93;;;29.70;72.20;;;;;;4976348;28;20026;-71
2022/06/07 13:29:27;;;;;;;16.27;5.47;;;29.30;72.20;;;;;;4959348;28;20035;-70
2022/06/07 13:31:59;;;;;;;9.45;5.25;;;29.80;73.90;;;;;;4951321;29;20035;-71
2022/06/07 13:34:28;;;;;;;7.45;5.00;;;29.70;72.30;;;;;;4970861;28;20893;-65
2022/06/07 13:37:11;;;;;;;8.88;4.85;;;29.80;72.80;;;;;;4970826;28;20117;-67
2022/06/07 13:40:01;;;;;;;6.40;4.53;;;29.90;72.70;;;;;;4970116;28;20046;-68
2022/06/07 13:42:39;;;;;;;7.00;4.72;;;29.70;71.70;;;;;;4969961;28;20070;-68
2022/06/07 13:45:11;;;;;;;9.60;4.82;;;30.00;73.70;;;;;;4969258;28;20061;-70
2022/06/07 13:47:41;;;;;;;9.07;5.30;;;30.10;72.30;;;;;;4969590;28;20039;-69